Terminal Aerodrome Forecast
Issued by NWS

Home | Current Version | Previous Version | Text Only | Print | Product List | Glossary On
Versions: 1 2 3 4 5 6 7 8 9 10 11 12 13 14 15 16 17 18
395
FTUS43 KAPX 050520
TAFMBL
TAF
KMBL 050520Z 0506/0606 36010KT P6SM SCT018 OVC050
     FM050800 01007KT P6SM SCT018 BKN070
     FM051400 35008KT P6SM SCT025
     FM051900 32009KT P6SM FEW250
     FM060000 VRB03KT P6SM SCT100 SCT250
      AMD LTD TO CLD VIS AND WIND=

USA.gov is the U.S. government's official web portal to all federal, state and local government web resources and services.